createdAt,value
2019-02-18T00:00:45.768Z,44.07
2019-02-18T00:03:12.491Z,41.37
2019-02-18T00:05:38.923Z,41.07
2019-02-18T00:08:05.320Z,44.83
2019-02-18T00:10:31.725Z,42.73
2019-02-18T00:12:58.027Z,36.50
2019-02-18T00:15:24.377Z,35.27
2019-02-18T00:17:50.679Z,38.23
2019-02-18T00:20:17.034Z,34.53
2019-02-18T00:22:43.367Z,37.20
2019-02-18T00:25:09.981Z,31.60
2019-02-18T00:27:36.332Z,26.10
2019-02-18T00:30:03.949Z,29.80
2019-02-18T00:32:31.653Z,32.20
2019-02-18T00:34:57.989Z,27.77
2019-02-18T00:37:24.885Z,35.83
2019-02-18T00:39:51.236Z,29.67
2019-02-18T00:42:17.608Z,33.40
2019-02-18T00:44:44.035Z,32.67
2019-02-18T00:47:10.633Z,34.17
2019-02-18T00:49:37.293Z,28.33
2019-02-18T00:52:03.864Z,32.97
2019-02-18T00:54:30.483Z,26.90
2019-02-18T00:56:57.035Z,27.63
2019-02-18T00:59:23.648Z,27.00
2019-02-18T01:01:49.959Z,25.00
2019-02-18T01:04:16.318Z,23.30
2019-02-18T01:06:42.949Z,29.43
2019-02-18T01:09:09.281Z,22.93
2019-02-18T01:11:35.998Z,30.37
2019-02-18T01:14:02.333Z,34.17
2019-02-18T01:16:28.892Z,29.23
2019-02-18T01:18:55.504Z,29.83
2019-02-18T01:21:22.116Z,34.70
2019-02-18T01:23:48.473Z,37.63
2019-02-18T01:26:14.816Z,31.30
2019-02-18T01:28:41.128Z,35.80
2019-02-18T01:31:07.459Z,47.90
2019-02-18T01:33:34.031Z,41.30
2019-02-18T01:36:00.388Z,51.13
2019-02-18T01:38:26.697Z,38.97
2019-02-18T01:40:53.051Z,41.97
2019-02-18T01:43:19.606Z,39.30
2019-02-18T01:45:46.205Z,48.00
2019-02-18T01:48:12.550Z,44.83
2019-02-18T01:50:38.991Z,39.77
2019-02-18T01:53:05.329Z,41.73
2019-02-18T01:55:31.654Z,41.83
2019-02-18T01:57:57.983Z,35.00
2019-02-18T02:00:24.347Z,41.37
2019-02-18T02:02:50.912Z,37.17
2019-02-18T02:05:17.869Z,42.73
2019-02-18T02:07:55.545Z,38.10
2019-02-18T02:10:14.335Z,44.60
2019-02-18T02:12:41.744Z,40.90
2019-02-18T02:15:13.554Z,32.53
2019-02-18T02:17:39.862Z,34.10
2019-02-18T02:20:07.355Z,30.13
2019-02-18T02:22:33.935Z,36.77
2019-02-18T02:25:00.377Z,32.53
2019-02-18T02:27:26.743Z,32.13
2019-02-18T02:29:53.315Z,38.07
2019-02-18T02:32:19.648Z,35.20
2019-02-18T02:34:45.951Z,29.33
2019-02-18T02:37:12.283Z,36.67
2019-02-18T02:39:38.897Z,41.50
2019-02-18T02:42:05.262Z,44.97
2019-02-18T02:44:31.892Z,45.57
2019-02-18T02:46:58.457Z,45.03
2019-02-18T02:49:25.051Z,55.23
2019-02-18T02:51:51.631Z,48.40
2019-02-18T02:54:17.945Z,45.60
2019-02-18T02:56:44.251Z,48.20
2019-02-18T02:59:10.835Z,43.63
2019-02-18T03:01:37.186Z,44.17
2019-02-18T03:04:03.501Z,46.07
2019-02-18T03:06:30.188Z,41.47
2019-02-18T03:08:56.505Z,37.13
2019-02-18T03:11:22.829Z,38.33
2019-02-18T03:13:49.442Z,38.60
2019-02-18T03:16:15.734Z,34.33
2019-02-18T03:18:42.034Z,37.53
2019-02-18T03:21:08.377Z,33.43
2019-02-18T03:23:34.946Z,31.67
2019-02-18T03:26:01.367Z,26.57
2019-02-18T03:28:59.193Z,26.73
2019-02-18T03:31:26.713Z,22.43
2019-02-18T03:34:02.566Z,28.77
2019-02-18T03:36:29.248Z,24.47
2019-02-18T03:38:55.560Z,20.03
2019-02-18T03:41:21.925Z,20.40
2019-02-18T03:43:48.547Z,18.97
2019-02-18T03:46:15.854Z,16.20
2019-02-18T03:48:42.218Z,24.17
2019-02-18T03:51:10.007Z,18.93
2019-02-18T03:53:37.336Z,17.87
2019-02-18T03:56:03.667Z,15.77
2019-02-18T03:58:30.020Z,19.93
2019-02-18T04:00:56.327Z,18.40
2019-02-18T04:03:22.914Z,21.27
2019-02-18T04:05:49.257Z,22.27
2019-02-18T04:08:15.582Z,24.70
2019-02-18T04:10:41.924Z,14.27
2019-02-18T04:13:08.283Z,19.27
2019-02-18T04:15:34.920Z,16.97
2019-02-18T04:18:01.871Z,14.67
2019-02-18T04:20:29.577Z,16.40
2019-02-18T04:22:56.956Z,18.43
2019-02-18T04:25:23.263Z,16.73
2019-02-18T04:27:49.713Z,16.47
2019-02-18T04:30:16.029Z,21.33
2019-02-18T04:32:42.414Z,20.50
2019-02-18T04:35:08.720Z,20.23
2019-02-18T04:37:36.353Z,22.73
2019-02-18T04:40:05.782Z,27.70
2019-02-18T04:42:32.133Z,21.70
2019-02-18T04:44:58.689Z,23.37
2019-02-18T04:47:25.057Z,28.40
2019-02-18T04:49:51.378Z,28.63
2019-02-18T04:52:18.041Z,27.53
2019-02-18T04:54:44.780Z,30.90
2019-02-18T04:57:11.135Z,24.47
2019-02-18T04:59:37.471Z,25.73
2019-02-18T05:02:04.030Z,24.70
2019-02-18T05:04:30.399Z,24.60
2019-02-18T05:06:56.713Z,24.97
2019-02-18T05:09:23.132Z,26.43
2019-02-18T05:11:49.888Z,26.03
2019-02-18T05:14:16.293Z,31.00
2019-02-18T05:16:42.906Z,30.60
2019-02-18T05:19:09.266Z,28.33
2019-02-18T05:21:35.876Z,19.90
2019-02-18T05:24:02.200Z,28.50
2019-02-18T05:26:28.516Z,31.10
2019-02-18T05:28:54.837Z,27.60
2019-02-18T05:31:21.535Z,28.27
2019-02-18T05:33:47.908Z,26.80
2019-02-18T05:36:14.305Z,24.03
2019-02-18T05:38:40.920Z,27.20
2019-02-18T05:41:07.247Z,24.33
2019-02-18T05:43:33.944Z,20.37
2019-02-18T05:46:00.253Z,18.97
2019-02-18T05:48:27.024Z,16.30
2019-02-18T05:50:53.355Z,23.47
2019-02-18T05:53:19.730Z,13.73
2019-02-18T05:55:46.081Z,19.57
2019-02-18T05:58:12.619Z,21.03
2019-02-18T06:00:39.050Z,27.77
2019-02-18T06:03:05.392Z,22.30
2019-02-18T06:05:32.015Z,21.60
2019-02-18T06:07:58.380Z,21.80
2019-02-18T06:10:24.696Z,21.83
2019-02-18T06:12:51.029Z,21.43
2019-02-18T06:15:17.339Z,24.20
2019-02-18T06:17:44.157Z,28.00
2019-02-18T06:20:10.872Z,28.13
2019-02-18T06:22:38.709Z,30.37
2019-02-18T06:25:05.405Z,24.23
2019-02-18T06:27:31.771Z,27.50
2019-02-18T06:29:58.483Z,29.60
2019-02-18T06:32:25.674Z,31.93
2019-02-18T06:34:52.434Z,35.67
2019-02-18T06:37:18.900Z,32.03
2019-02-18T06:39:45.482Z,35.57
2019-02-18T06:42:11.835Z,37.80
2019-02-18T06:44:40.298Z,41.60
2019-02-18T06:47:07.654Z,40.87
2019-02-18T06:49:33.968Z,46.43
2019-02-18T06:52:00.557Z,38.10
2019-02-18T06:54:26.906Z,37.70
2019-02-18T06:56:58.037Z,47.03
2019-02-18T06:59:26.356Z,42.87
2019-02-18T07:01:57.227Z,45.37
2019-02-18T07:04:37.457Z,42.77
2019-02-18T07:07:08.582Z,52.40
2019-02-18T07:09:36.859Z,45.90
2019-02-18T07:12:09.580Z,52.07
2019-02-18T07:14:35.910Z,58.77
2019-02-18T07:17:02.264Z,65.23
2019-02-18T07:19:28.875Z,41.17
2019-02-18T07:21:55.519Z,47.83
2019-02-18T07:24:21.817Z,52.27
2019-02-18T07:26:48.151Z,84.60
2019-02-18T07:29:14.696Z,55.30
2019-02-18T07:31:41.041Z,50.47
2019-02-18T07:34:07.372Z,54.37
2019-02-18T07:36:35.080Z,55.83
2019-02-18T07:39:01.948Z,46.60
2019-02-18T07:41:30.193Z,48.90
2019-02-18T07:43:56.808Z,44.30
2019-02-18T07:46:23.129Z,42.10
2019-02-18T07:48:49.770Z,47.00
2019-02-18T07:51:16.336Z,53.23
2019-02-18T07:53:42.669Z,49.97
2019-02-18T07:56:09.267Z,49.63
2019-02-18T07:58:35.596Z,49.50
2019-02-18T08:01:02.041Z,54.30
2019-02-18T08:03:28.399Z,51.60
2019-02-18T08:05:54.810Z,58.30
2019-02-18T08:08:21.171Z,59.43
2019-02-18T08:10:47.748Z,60.37
2019-02-18T08:13:14.407Z,60.50
2019-02-18T08:15:44.641Z,53.07
2019-02-18T08:18:11.335Z,55.53
2019-02-18T08:20:37.921Z,59.50
2019-02-18T08:23:04.370Z,70.60
2019-02-18T08:25:30.943Z,62.27
2019-02-18T08:27:57.305Z,69.00
2019-02-18T08:30:23.628Z,56.10
2019-02-18T08:32:49.953Z,54.63
2019-02-18T08:35:16.388Z,58.67
2019-02-18T08:37:42.737Z,61.63
2019-02-18T08:40:09.490Z,58.70
2019-02-18T08:42:36.174Z,57.60
2019-02-18T08:45:07.015Z,63.37
2019-02-18T08:47:33.441Z,62.17
2019-02-18T08:50:00.318Z,57.70
2019-02-18T08:52:26.769Z,57.67
2019-02-18T08:54:56.671Z,64.70
2019-02-18T08:57:21.676Z,61.60
2019-02-18T08:59:47.970Z,59.67
2019-02-18T09:02:14.349Z,61.70
2019-02-18T09:04:40.720Z,61.23
2019-02-18T09:07:07.325Z,59.67
2019-02-18T09:09:33.924Z,58.00
2019-02-18T09:12:00.541Z,56.90
2019-02-18T09:14:27.150Z,64.10
2019-02-18T09:16:53.779Z,54.23
2019-02-18T09:19:20.136Z,57.50
2019-02-18T09:21:48.366Z,62.03
2019-02-18T09:24:17.874Z,57.60
2019-02-18T09:26:44.464Z,58.67
2019-02-18T09:29:10.890Z,63.60
2019-02-18T09:31:37.273Z,60.50
2019-02-18T09:34:03.599Z,67.00
2019-02-18T09:36:30.306Z,65.67
2019-02-18T09:38:56.929Z,62.90
2019-02-18T09:41:23.267Z,64.50
2019-02-18T09:43:49.578Z,67.63
2019-02-18T09:46:15.940Z,64.90
2019-02-18T09:48:43.407Z,59.63
2019-02-18T09:51:09.756Z,57.17
2019-02-18T09:53:36.096Z,61.40
2019-02-18T09:56:02.757Z,60.00
2019-02-18T09:58:29.397Z,63.60
2019-02-18T10:00:55.759Z,61.23
2019-02-18T10:03:31.642Z,62.83
2019-02-18T10:05:50.763Z,64.73
2019-02-18T10:08:17.255Z,64.57
2019-02-18T10:10:43.644Z,64.57
2019-02-18T10:13:10.087Z,72.10
2019-02-18T10:15:36.484Z,62.00
2019-02-18T10:18:03.024Z,74.10
2019-02-18T10:20:35.053Z,64.60
2019-02-18T10:23:01.836Z,63.77
2019-02-18T10:25:28.267Z,70.07
2019-02-18T10:27:54.779Z,57.80
2019-02-18T10:30:21.546Z,58.97
2019-02-18T10:32:48.242Z,61.13
2019-02-18T10:35:14.829Z,61.70
2019-02-18T10:37:41.752Z,55.63
2019-02-18T10:40:09.657Z,59.67
2019-02-18T10:42:35.959Z,55.90
2019-02-18T10:45:08.158Z,61.53
2019-02-18T10:47:34.736Z,61.60
2019-02-18T10:50:01.353Z,54.07
2019-02-18T10:52:27.928Z,61.70
2019-02-18T10:54:54.459Z,57.87
2019-02-18T10:57:20.929Z,52.13
2019-02-18T10:59:47.258Z,66.33
2019-02-18T11:02:13.793Z,64.83
2019-02-18T11:04:40.394Z,59.83
2019-02-18T11:07:07.113Z,61.07
2019-02-18T11:09:33.699Z,60.77
2019-02-18T11:12:00.039Z,58.23
2019-02-18T11:14:26.384Z,63.10
2019-02-18T11:16:52.988Z,57.30
2019-02-18T11:19:19.360Z,60.53
2019-02-18T11:21:45.746Z,68.63
2019-02-18T11:24:12.454Z,59.23
2019-02-18T11:26:38.864Z,61.10
2019-02-18T11:29:05.775Z,60.20
2019-02-18T11:31:32.100Z,67.80
2019-02-18T11:33:58.555Z,57.87
2019-02-18T11:36:24.876Z,55.50
2019-02-18T11:38:51.511Z,60.90
2019-02-18T11:41:27.093Z,58.13
2019-02-18T11:43:46.507Z,61.17
2019-02-18T11:46:13.386Z,58.50
2019-02-18T11:48:41.004Z,58.20
2019-02-18T11:51:07.301Z,52.90
2019-02-18T11:53:33.649Z,56.73
2019-02-18T11:55:59.972Z,46.70
2019-02-18T11:58:26.582Z,52.50
2019-02-18T12:00:53.191Z,56.90
2019-02-18T12:03:19.554Z,53.27
2019-02-18T12:05:46.285Z,57.80
2019-02-18T12:08:12.568Z,45.70
2019-02-18T12:10:38.934Z,45.70
2019-02-18T12:13:05.457Z,49.30
2019-02-18T12:15:32.053Z,43.80
2019-02-18T12:18:00.756Z,52.67
2019-02-18T12:20:27.347Z,43.77
2019-02-18T12:22:53.933Z,46.23
2019-02-18T12:25:21.010Z,49.30
2019-02-18T12:27:47.346Z,48.10
2019-02-18T12:30:16.416Z,44.30
2019-02-18T12:32:43.090Z,43.60
2019-02-18T12:35:11.698Z,48.60
2019-02-18T12:37:38.047Z,41.43
2019-02-18T12:40:10.682Z,43.70
2019-02-18T12:42:37.284Z,39.43
2019-02-18T12:45:07.916Z,39.00
2019-02-18T12:47:34.502Z,39.50
2019-02-18T12:50:00.846Z,41.20
2019-02-18T12:52:27.436Z,38.07
2019-02-18T12:54:54.169Z,50.13
2019-02-18T12:57:20.642Z,44.53
2019-02-18T12:59:47.397Z,38.17
2019-02-18T13:02:14.281Z,40.53
2019-02-18T13:04:40.614Z,38.93
2019-02-18T13:07:07.216Z,37.97
2019-02-18T13:09:33.803Z,41.57
2019-02-18T13:12:00.492Z,39.93
2019-02-18T13:14:27.066Z,39.40
2019-02-18T13:16:53.690Z,41.77
2019-02-18T13:19:20.305Z,36.63
2019-02-18T13:21:46.705Z,40.80
2019-02-18T13:24:13.345Z,38.80
2019-02-18T13:26:39.763Z,39.23
2019-02-18T13:29:06.100Z,36.67
2019-02-18T13:31:32.446Z,40.30
2019-02-18T13:33:59.042Z,38.47
2019-02-18T13:36:25.407Z,36.60
2019-02-18T13:38:51.738Z,35.83
2019-02-18T13:41:18.090Z,41.00
2019-02-18T13:43:44.677Z,40.60
2019-02-18T13:46:11.209Z,35.73
2019-02-18T13:48:37.808Z,36.10
2019-02-18T13:51:04.147Z,37.40
2019-02-18T13:53:31.570Z,39.80
2019-02-18T13:55:58.144Z,37.87
2019-02-18T13:58:24.746Z,40.43
2019-02-18T14:00:51.087Z,40.13
2019-02-18T14:03:17.391Z,40.33
2019-02-18T14:05:44.125Z,39.80
2019-02-18T14:08:10.692Z,43.30
2019-02-18T14:10:37.064Z,43.70
2019-02-18T14:13:03.679Z,35.70
2019-02-18T14:15:30.301Z,43.13
2019-02-18T14:17:56.751Z,36.53
2019-02-18T14:20:23.096Z,45.80
2019-02-18T14:22:49.424Z,42.80
2019-02-18T14:25:16.158Z,35.80
2019-02-18T14:27:42.794Z,38.37
2019-02-18T14:30:15.677Z,38.13
2019-02-18T14:32:42.531Z,42.00
2019-02-18T14:35:09.746Z,38.07
2019-02-18T14:37:36.075Z,46.50
2019-02-18T14:40:03.866Z,38.33
2019-02-18T14:42:30.220Z,37.57
2019-02-18T14:44:56.693Z,41.40
2019-02-18T14:47:23.102Z,41.80
2019-02-18T14:49:49.705Z,38.07
2019-02-18T14:52:16.030Z,38.77
2019-02-18T14:54:42.703Z,36.33
2019-02-18T14:57:09.107Z,39.93
2019-02-18T14:59:36.663Z,40.97
2019-02-18T15:02:03.043Z,35.17
2019-02-18T15:04:29.371Z,40.00
2019-02-18T15:06:56.172Z,39.23
2019-02-18T15:09:22.846Z,41.60
2019-02-18T15:11:49.454Z,42.43
2019-02-18T15:14:16.049Z,43.97
2019-02-18T15:16:42.634Z,44.77
2019-02-18T15:19:09.385Z,46.27
2019-02-18T15:21:36.083Z,51.83
2019-02-18T15:24:02.772Z,41.77
2019-02-18T15:26:29.967Z,46.40
2019-02-18T15:28:56.576Z,49.30
2019-02-18T15:31:22.934Z,43.90
2019-02-18T15:33:49.294Z,49.37
2019-02-18T15:36:15.741Z,51.60
2019-02-18T15:38:42.279Z,53.63
2019-02-18T15:41:08.724Z,58.43
2019-02-18T15:43:35.353Z,70.07
2019-02-18T15:46:01.937Z,78.70
2019-02-18T15:48:28.779Z,90.97
2019-02-18T15:50:55.125Z,66.87
2019-02-18T15:53:21.733Z,64.60
2019-02-18T15:55:48.300Z,65.63
2019-02-18T15:58:14.928Z,61.17
2019-02-18T16:00:41.552Z,62.90
2019-02-18T16:03:07.957Z,52.83
2019-02-18T16:05:34.316Z,52.00
2019-02-18T16:08:00.685Z,48.87
2019-02-18T16:10:27.311Z,54.80
2019-02-18T16:12:54.691Z,49.47
2019-02-18T16:15:21.343Z,49.93
2019-02-18T16:17:47.971Z,51.33
2019-02-18T16:20:14.388Z,46.17
2019-02-18T16:22:40.830Z,43.67
2019-02-18T16:25:20.108Z,46.80
2019-02-18T16:27:46.838Z,49.77
2019-02-18T16:30:14.297Z,45.20
2019-02-18T16:32:41.330Z,44.50
2019-02-18T16:35:08.877Z,38.90
2019-02-18T16:37:35.612Z,38.27
2019-02-18T16:40:05.252Z,44.40
2019-02-18T16:42:31.566Z,48.20
2019-02-18T16:44:58.279Z,51.83
2019-02-18T16:47:24.903Z,44.47
2019-02-18T16:49:51.253Z,47.27
2019-02-18T16:52:17.808Z,46.90
2019-02-18T16:54:44.906Z,46.20
2019-02-18T16:57:11.296Z,44.20
2019-02-18T16:59:37.929Z,49.80
2019-02-18T17:02:04.852Z,46.93
2019-02-18T17:04:31.807Z,47.17
2019-02-18T17:06:58.917Z,44.33
2019-02-18T17:09:25.543Z,56.30
2019-02-18T17:11:52.157Z,45.40
2019-02-18T17:14:18.493Z,45.17
2019-02-18T17:16:45.088Z,47.67
2019-02-18T17:19:11.452Z,42.47
2019-02-18T17:21:37.781Z,47.00
2019-02-18T17:24:04.495Z,51.40
2019-02-18T17:26:31.138Z,49.93
2019-02-18T17:28:57.507Z,47.93
2019-02-18T17:31:24.159Z,44.27
2019-02-18T17:33:51.014Z,45.70
2019-02-18T17:36:17.790Z,53.03
2019-02-18T17:38:44.152Z,43.47
2019-02-18T17:41:10.515Z,46.90
2019-02-18T17:43:37.129Z,47.83
2019-02-18T17:46:03.873Z,42.03
2019-02-18T17:48:30.589Z,43.97
2019-02-18T17:50:57.019Z,38.50
2019-02-18T17:53:23.599Z,43.17
2019-02-18T17:55:49.931Z,39.60
2019-02-18T17:58:16.277Z,48.00
2019-02-18T18:00:44.880Z,42.93
2019-02-18T18:03:11.250Z,46.97
2019-02-18T18:05:38.372Z,40.67
2019-02-18T18:08:04.937Z,39.80
2019-02-18T18:10:31.611Z,43.20
2019-02-18T18:12:57.980Z,43.80
2019-02-18T18:15:24.638Z,45.17
2019-02-18T18:17:51.248Z,44.20
2019-02-18T18:20:17.591Z,40.47
2019-02-18T18:22:44.196Z,43.43
2019-02-18T18:25:12.703Z,41.03
2019-02-18T18:27:39.537Z,38.07
2019-02-18T18:30:19.064Z,42.70
2019-02-18T18:32:45.661Z,40.63
2019-02-18T18:35:12.666Z,40.50
2019-02-18T18:37:39.308Z,49.63
2019-02-18T18:40:12.137Z,36.33
2019-02-18T18:42:38.462Z,52.77
2019-02-18T18:45:09.837Z,46.90
2019-02-18T18:47:36.343Z,51.13
2019-02-18T18:50:07.984Z,42.87
2019-02-18T18:52:34.348Z,41.20
2019-02-18T18:55:01.033Z,43.70
2019-02-18T18:57:27.361Z,43.70
2019-02-18T18:59:54.020Z,41.10
2019-02-18T19:02:20.340Z,40.90
2019-02-18T19:04:46.770Z,40.13
2019-02-18T19:07:13.109Z,44.63
2019-02-18T19:09:39.734Z,50.53
2019-02-18T19:12:06.333Z,37.17
2019-02-18T19:14:32.710Z,38.37
2019-02-18T19:16:59.611Z,46.37
2019-02-18T19:19:26.105Z,34.67
2019-02-18T19:21:52.772Z,44.10
2019-02-18T19:24:19.386Z,51.23
2019-02-18T19:26:46.036Z,37.97
2019-02-18T19:29:12.637Z,40.93
2019-02-18T19:31:39.560Z,48.77
2019-02-18T19:34:06.146Z,44.93
2019-02-18T19:36:32.487Z,41.13
2019-02-18T19:38:59.114Z,38.00
2019-02-18T19:41:25.734Z,42.93
2019-02-18T19:43:52.097Z,33.23
2019-02-18T19:46:18.468Z,41.20
2019-02-18T19:48:45.223Z,37.93
2019-02-18T19:51:11.851Z,39.30
2019-02-18T19:53:38.225Z,40.60
2019-02-18T19:56:04.823Z,44.80
2019-02-18T19:58:31.484Z,51.43
2019-02-18T20:00:57.907Z,43.27
2019-02-18T20:03:24.325Z,61.97
2019-02-18T20:05:51.017Z,40.80
2019-02-18T20:08:17.914Z,47.53
2019-02-18T20:10:44.227Z,43.20
2019-02-18T20:13:10.864Z,41.40
2019-02-18T20:15:37.188Z,46.63
2019-02-18T20:18:03.788Z,37.00
2019-02-18T20:20:30.624Z,36.70
2019-02-18T20:22:57.378Z,40.57
2019-02-18T20:25:24.149Z,38.50
2019-02-18T20:27:50.551Z,40.97
2019-02-18T20:30:17.200Z,38.17
2019-02-18T20:32:43.598Z,46.63
2019-02-18T20:35:10.498Z,39.50
2019-02-18T20:37:37.583Z,44.23
2019-02-18T20:40:07.554Z,43.83
2019-02-18T20:42:34.323Z,36.47
2019-02-18T20:45:01.015Z,42.63
2019-02-18T20:47:27.609Z,41.43
2019-02-18T20:49:54.438Z,44.20
2019-02-18T20:52:20.897Z,37.20
2019-02-18T20:54:47.618Z,40.57
2019-02-18T20:57:13.980Z,43.30
2019-02-18T20:59:40.641Z,44.40
2019-02-18T21:02:07.299Z,43.13
2019-02-18T21:04:33.982Z,45.13
2019-02-18T21:07:01.431Z,58.30
2019-02-18T21:09:28.054Z,41.80
2019-02-18T21:11:54.474Z,47.07
2019-02-18T21:14:22.217Z,36.70
2019-02-18T21:16:48.925Z,39.07
2019-02-18T21:19:15.562Z,32.23
2019-02-18T21:21:41.978Z,37.07
2019-02-18T21:24:08.611Z,34.73
2019-02-18T21:26:36.696Z,36.20
2019-02-18T21:29:03.501Z,33.40
2019-02-18T21:31:30.225Z,42.47
2019-02-18T21:33:57.058Z,35.20
2019-02-18T21:36:23.760Z,34.50
2019-02-18T21:38:50.559Z,31.53
2019-02-18T21:41:16.926Z,38.70
2019-02-18T21:43:43.321Z,35.53
2019-02-18T21:46:09.695Z,33.67
2019-02-18T21:48:36.085Z,34.10
2019-02-18T21:51:02.443Z,34.40
2019-02-18T21:53:28.811Z,28.53
2019-02-18T21:55:55.220Z,31.20
2019-02-18T21:58:22.032Z,33.90
2019-02-18T22:00:48.782Z,34.50
2019-02-18T22:03:17.516Z,37.90
2019-02-18T22:05:45.094Z,32.87
2019-02-18T22:08:11.725Z,37.70
2019-02-18T22:10:38.170Z,40.10
2019-02-18T22:13:04.600Z,37.07
2019-02-18T22:15:31.028Z,34.67
2019-02-18T22:17:57.637Z,42.53
2019-02-18T22:20:24.052Z,36.53
2019-02-18T22:22:51.246Z,35.30
2019-02-18T22:25:17.919Z,33.20
2019-02-18T22:27:44.397Z,34.37
2019-02-18T22:30:15.761Z,27.63
2019-02-18T22:32:42.334Z,28.43
2019-02-18T22:35:09.023Z,31.23
2019-02-18T22:37:35.662Z,34.27
2019-02-18T22:40:09.104Z,27.77
2019-02-18T22:42:35.483Z,34.10
2019-02-18T22:45:02.954Z,33.90
2019-02-18T22:47:29.362Z,37.63
2019-02-18T22:49:56.078Z,33.33
2019-02-18T22:52:22.512Z,38.43
2019-02-18T22:54:49.262Z,31.80
2019-02-18T22:57:15.676Z,28.43
2019-02-18T22:59:42.028Z,31.53
2019-02-18T23:02:09.001Z,27.13
2019-02-18T23:04:35.465Z,33.80
2019-02-18T23:07:02.248Z,30.20
2019-02-18T23:09:28.600Z,29.33
2019-02-18T23:11:55.340Z,35.10
2019-02-18T23:14:21.765Z,29.83
2019-02-18T23:16:48.163Z,33.40
2019-02-18T23:19:14.809Z,33.20
2019-02-18T23:21:41.170Z,26.83
2019-02-18T23:24:07.911Z,32.83
2019-02-18T23:26:34.574Z,28.50
2019-02-18T23:29:01.272Z,29.73
2019-02-18T23:31:27.634Z,37.97
2019-02-18T23:33:54.580Z,36.17
2019-02-18T23:36:21.253Z,35.23
2019-02-18T23:38:47.591Z,33.97
2019-02-18T23:41:13.978Z,27.67
2019-02-18T23:43:40.347Z,28.23
2019-02-18T23:46:06.782Z,25.83
2019-02-18T23:48:33.143Z,31.30
2019-02-18T23:50:59.513Z,25.80
2019-02-18T23:53:26.216Z,24.47
2019-02-18T23:55:52.852Z,29.10
2019-02-18T23:58:19.207Z,27.73
